Time;durP1;ratioP1;P1;durP2;ratioP2;P2;SDS_P1;SDS_P2;PMS_P1;PMS_P2;Temp;Humidity;BMP_temperature;BMP_pressure;BME280_temperature;BME280_humidity;BME280_pressure;Samples;Min_cycle;Max_cycle;Signal;HPM_P1;HPM_P2
2024/04/13 00:01:34;;;;;;;14.32;3.90;;;;;;;15.62;64.30;99900.84;5417929;26;20364;-46
2024/04/13 00:04:02;;;;;;;11.02;4.25;;;;;;;15.64;64.36;99901.44;5417689;26;20004;-46
2024/04/13 00:06:27;;;;;;;14.30;3.25;;;;;;;15.66;64.27;99904.69;5417844;26;20391;-45
2024/04/13 00:08:55;;;;;;;9.60;4.22;;;;;;;15.64;64.20;99900.63;5417618;26;20010;-45
2024/04/13 00:11:22;;;;;;;9.05;3.95;;;;;;;15.40;64.88;99902.03;5417564;26;19999;-45
2024/04/13 00:13:49;;;;;;;10.65;8.43;;;;;;;15.18;65.83;99904.84;5415763;26;20003;-45
2024/04/13 00:16:15;;;;;;;8.85;4.20;;;;;;;15.11;66.28;99898.72;5417573;26;20076;-45
2024/04/13 00:18:41;;;;;;;9.23;4.03;;;;;;;14.91;66.84;99896.84;5417556;26;20418;-45
2024/04/13 00:21:07;;;;;;;5.38;3.92;;;;;;;14.71;67.52;99894.13;5417731;26;20031;-45
2024/04/13 00:23:32;;;;;;;8.82;4.97;;;;;;;14.62;67.74;99897.13;5415810;26;20007;-45
2024/04/13 00:26:04;;;;;;;29.20;18.98;;;;;;;14.49;68.28;99898.69;5417489;26;19999;-45
2024/04/13 00:28:36;;;;;;;12.23;10.95;;;;;;;14.40;68.90;99886.63;5417560;26;20011;-45
2024/04/13 00:31:06;;;;;;;19.63;15.93;;;;;;;14.34;69.54;99893.50;5386499;26;20003;-45
2024/04/13 00:33:38;;;;;;;16.33;14.70;;;;;;;14.31;69.74;99886.00;5415246;26;20010;-45
2024/04/13 00:36:09;;;;;;;7.53;5.22;;;;;;;14.29;70.15;99888.00;5417257;26;20071;-46
2024/04/13 00:38:38;;;;;;;12.30;5.25;;;;;;;14.27;70.47;99881.28;5417348;26;20015;-45
2024/04/13 00:41:09;;;;;;;8.38;7.55;;;;;;;14.28;70.18;99872.34;5417134;26;20018;-46
2024/04/13 00:43:36;;;;;;;9.10;4.95;;;;;;;14.34;70.27;99871.56;5415652;26;20665;-46
2024/04/13 00:46:07;;;;;;;9.63;5.13;;;;;;;14.38;69.38;99873.63;5415423;26;20027;-45
2024/04/13 00:48:36;;;;;;;9.15;4.63;;;;;;;14.37;69.31;99874.63;5415476;26;20011;-45
2024/04/13 00:51:04;;;;;;;9.18;4.50;;;;;;;14.33;69.40;99876.03;5417013;26;20423;-45
2024/04/13 00:53:34;;;;;;;11.05;5.22;;;;;;;14.38;69.85;99865.69;5417058;26;20101;-45
2024/04/13 00:56:01;;;;;;;14.90;11.55;;;;;;;14.52;69.07;99874.50;5417091;26;20008;-46
2024/04/13 00:58:28;;;;;;;8.10;5.00;;;;;;;14.45;69.01;99867.56;5415205;26;20018;-45
2024/04/13 01:00:56;;;;;;;12.73;8.35;;;;;;;14.50;69.56;99870.44;5416890;26;20012;-46
2024/04/13 01:03:26;;;;;;;11.95;6.93;;;;;;;14.52;69.35;99861.28;5417017;26;20022;-45
2024/04/13 01:05:52;;;;;;;10.68;6.13;;;;;;;14.56;69.07;99857.25;5416815;26;20007;-46
2024/04/13 01:08:20;;;;;;;10.93;5.78;;;;;;;14.49;68.95;99861.69;5416790;26;20010;-45
2024/04/13 01:10:46;;;;;;;6.38;3.95;;;;;;;14.48;68.54;99859.25;5416840;26;20506;-45
2024/04/13 01:13:12;;;;;;;11.25;8.63;;;;;;;14.42;68.47;99863.47;5415059;26;20427;-45
2024/04/13 01:15:38;;;;;;;10.43;7.63;;;;;;;14.24;69.25;99865.81;5416704;26;20031;-46
2024/04/13 01:18:10;;;;;;;27.65;25.13;;;;;;;14.11;69.73;99861.31;5415060;26;20010;-45
2024/04/13 01:20:38;;;;;;;47.10;42.95;;;;;;;14.05;70.34;99862.06;5416732;26;20019;-45
2024/04/13 01:23:05;;;;;;;76.50;69.13;;;;;;;14.00;71.00;99865.28;5416627;26;20100;-45
2024/04/13 01:25:31;;;;;;;16.13;14.60;;;;;;;14.03;70.10;99869.38;5414839;26;20072;-45
2024/04/13 01:27:57;;;;;;;19.85;14.93;;;;;;;13.89;70.67;99864.00;5414805;26;20039;-45
2024/04/13 01:30:24;;;;;;;79.80;72.50;;;;;;;13.71;70.50;99872.41;5414652;26;20437;-45
2024/04/13 01:32:50;;;;;;;49.40;45.03;;;;;;;13.71;71.34;99858.38;5414597;26;20003;-45
2024/04/13 01:35:19;;;;;;;38.85;35.63;;;;;;;13.79;71.30;99852.97;5414550;26;20000;-45
2024/04/13 01:37:45;;;;;;;14.00;11.45;;;;;;;13.73;71.11;99854.53;5416418;26;19999;-45
2024/04/13 01:40:12;;;;;;;7.57;6.53;;;;;;;13.66;70.65;99856.34;5416359;26;20084;-45
2024/04/13 01:42:42;;;;;;;7.88;4.07;;;;;;;13.41;70.80;99853.28;5414602;26;20072;-45
2024/04/13 01:45:11;;;;;;;8.70;4.95;;;;;;;13.19;71.88;99858.53;5416340;26;20003;-45
2024/04/13 01:47:37;;;;;;;7.80;4.57;;;;;;;13.11;72.82;99849.94;5416265;26;20407;-45
2024/04/13 01:50:03;;;;;;;13.73;7.30;;;;;;;13.10;73.78;99856.19;5416213;26;19999;-45
2024/04/13 01:52:29;;;;;;;9.40;4.18;;;;;;;13.35;73.93;99857.47;5416121;26;20069;-45
2024/04/13 01:54:55;;;;;;;13.65;5.97;;;;;;;13.50;72.12;99861.88;5416116;26;20035;-45
2024/04/13 01:57:21;;;;;;;10.45;5.32;;;;;;;13.34;72.26;99857.66;5416043;26;20457;-45
2024/04/13 01:59:47;;;;;;;8.50;5.40;;;;;;;13.23;72.85;99863.44;5416046;26;20013;-46
2024/04/13 02:02:12;;;;;;;5.80;4.38;;;;;;;13.13;73.07;99864.53;5415910;26;20000;-45
2024/04/13 02:04:38;;;;;;;9.40;4.57;;;;;;;13.05;73.41;99856.75;5415940;26;20081;-45
2024/04/13 02:07:05;;;;;;;8.00;3.95;;;;;;;13.01;73.65;99854.69;5415910;26;20322;-45
2024/04/13 02:09:31;;;;;;;24.95;20.45;;;;;;;13.12;73.99;99854.19;5415862;26;20011;-45
2024/04/13 02:11:58;;;;;;;17.02;11.77;;;;;;;13.38;73.27;99853.66;5415908;26;20000;-45
2024/04/13 02:14:23;;;;;;;9.23;4.55;;;;;;;13.47;72.01;99851.72;5415689;26;20345;-45
2024/04/13 02:16:50;;;;;;;9.40;4.68;;;;;;;13.39;71.46;99856.09;5415727;26;20003;-45
2024/04/13 02:19:16;;;;;;;8.88;4.95;;;;;;;13.17;71.94;99857.09;5416957;26;20071;-45
2024/04/13 02:21:41;;;;;;;9.55;4.20;;;;;;;13.09;72.82;99858.03;5419286;26;20018;-45
2024/04/13 02:24:07;;;;;;;9.63;4.82;;;;;;;13.12;73.28;99862.09;5419140;26;20003;-45
2024/04/13 02:26:33;;;;;;;9.10;4.07;;;;;;;13.26;72.98;99855.13;5419198;26;20000;-45
2024/04/13 02:28:59;;;;;;;9.50;7.15;;;;;;;13.38;72.05;99851.84;5419042;26;19999;-45
2024/04/13 02:31:25;;;;;;;8.93;4.80;;;;;;;13.35;72.52;99856.69;5418666;26;20010;-46
2024/04/13 02:33:51;;;;;;;8.07;4.68;;;;;;;13.31;71.95;99858.88;5419068;26;20011;-45
2024/04/13 02:36:17;;;;;;;20.80;18.02;;;;;;;13.31;72.22;99850.16;5417302;26;20007;-45
2024/04/13 02:38:43;;;;;;;10.73;6.60;;;;;;;13.25;72.53;99864.88;5387807;26;20007;-45
2024/04/13 02:41:09;;;;;;;9.48;4.82;;;;;;;13.21;72.20;99860.97;5419003;26;20000;-45
2024/04/13 02:43:38;;;;;;;6.50;5.50;;;;;;;13.05;72.67;99848.03;5419003;26;20000;-45
2024/04/13 02:46:09;;;;;;;14.70;10.82;;;;;;;13.07;73.41;99854.75;5418910;26;20018;-45
2024/04/13 02:48:43;;;;;;;9.00;5.80;;;;;;;13.23;72.84;99858.97;5418903;26;20014;-45
2024/04/13 02:51:10;;;;;;;10.18;8.38;;;;;;;13.30;72.04;99854.63;5416910;26;20008;-45
2024/04/13 02:53:37;;;;;;;10.43;5.72;;;;;;;13.28;71.91;99855.75;5417172;26;20003;-45
2024/04/13 02:56:04;;;;;;;6.15;4.30;;;;;;;13.18;71.96;99856.09;5416934;26;20018;-45
2024/04/13 02:58:29;;;;;;;8.10;4.63;;;;;;;13.02;72.60;99857.16;5418719;26;20014;-45
2024/04/13 03:01:00;;;;;;;10.45;3.97;;;;;;;12.94;72.49;99844.91;5417027;26;20000;-45
2024/04/13 03:03:27;;;;;;;10.57;5.97;;;;;;;12.83;72.51;99850.66;5416840;26;20000;-45
2024/04/13 03:06:01;;;;;;;8.85;5.20;;;;;;;12.62;73.17;99859.34;5416852;26;20072;-47
2024/04/13 03:08:27;;;;;;;9.00;7.40;;;;;;;12.45;73.60;99863.16;5416779;26;20004;-48
2024/04/13 03:10:57;;;;;;;7.70;3.90;;;;;;;12.25;74.72;99861.09;5418441;26;19999;-47
2024/04/13 03:13:23;;;;;;;14.60;5.55;;;;;;;12.21;75.13;99864.28;5418489;26;20043;-47
2024/04/13 03:16:03;;;;;;;7.95;5.05;;;;;;;12.15;75.66;99864.00;5418626;26;20121;-48
2024/04/13 03:18:46;;;;;;;10.40;7.38;;;;;;;12.15;75.71;99871.91;5418549;26;19999;-48
2024/04/13 03:21:12;;;;;;;12.30;8.15;;;;;;;12.16;76.26;99863.00;5418279;26;20016;-47
2024/04/13 03:23:40;;;;;;;15.85;14.18;;;;;;;12.13;76.30;99870.44;5418478;26;19999;-48
2024/04/13 03:26:05;;;;;;;13.90;5.78;;;;;;;12.09;76.04;99872.63;5418272;26;20003;-48
2024/04/13 03:28:35;;;;;;;8.77;5.53;;;;;;;11.96;76.25;99870.59;5416450;26;20337;-47
2024/04/13 03:31:01;;;;;;;10.82;4.45;;;;;;;11.97;77.01;99871.41;5414795;26;20106;-47
2024/04/13 03:33:27;;;;;;;6.07;4.55;;;;;;;12.08;77.36;99871.00;5358281;26;20015;-48
2024/04/13 03:35:53;;;;;;;26.80;24.27;;;;;;;12.16;76.47;99865.63;5416767;26;20434;-47
2024/04/13 03:38:20;;;;;;;6.75;6.00;;;;;;;12.16;75.79;99870.91;5418396;26;20334;-47
2024/04/13 03:40:46;;;;;;;11.63;6.32;;;;;;;12.15;76.32;99871.91;5416333;26;20015;-48
2024/04/13 03:43:12;;;;;;;10.85;9.80;;;;;;;12.25;76.41;99873.44;5418087;26;20008;-48
2024/04/13 03:45:38;;;;;;;8.90;7.40;;;;;;;12.26;75.53;99869.81;5418052;26;20004;-47
2024/04/13 03:48:04;;;;;;;13.25;11.85;;;;;;;12.13;75.60;99879.16;5417965;26;20004;-48
2024/04/13 03:50:30;;;;;;;27.15;24.75;;;;;;;12.08;76.40;99870.19;5417994;26;20088;-47
2024/04/13 03:52:57;;;;;;;11.40;7.20;;;;;;;12.16;76.82;99873.53;5418171;26;20011;-48
2024/04/13 03:55:22;;;;;;;17.85;13.43;;;;;;;12.37;75.98;99871.97;5417853;26;20018;-48
2024/04/13 03:57:49;;;;;;;20.25;18.25;;;;;;;12.56;75.12;99863.53;5417897;26;20004;-48
2024/04/13 04:00:15;;;;;;;10.88;6.57;;;;;;;12.65;74.21;99861.59;5417765;26;20399;-48
2024/04/13 04:02:42;;;;;;;10.18;6.18;;;;;;;12.61;73.82;99857.69;5417890;26;20333;-48
2024/04/13 04:05:07;;;;;;;34.40;31.17;;;;;;;12.57;73.86;99862.50;5417690;26;20003;-48
2024/04/13 04:07:34;;;;;;;10.82;9.73;;;;;;;12.66;74.00;99862.44;5417864;26;20003;-48
2024/04/13 04:10:00;;;;;;;9.80;8.55;;;;;;;12.62;73.17;99866.44;5417735;26;20479;-48
2024/04/13 04:12:26;;;;;;;33.05;29.88;;;;;;;12.53;73.45;99857.81;5417988;26;20030;-48
2024/04/13 04:14:51;;;;;;;17.45;13.00;;;;;;;12.44;73.61;99857.09;5417890;26;20003;-48
2024/04/13 04:17:17;;;;;;;18.30;8.68;;;;;;;12.32;74.19;99866.47;5417708;26;20014;-48
2024/04/13 04:19:43;;;;;;;9.10;6.28;;;;;;;12.28;74.39;99871.25;5417872;26;20007;-48
2024/04/13 04:22:10;;;;;;;10.57;7.15;;;;;;;12.23;74.64;99870.16;5417637;26;20019;-47
2024/04/13 04:24:37;;;;;;;19.33;10.88;;;;;;;12.18;75.30;99866.28;5417784;26;20014;-48
2024/04/13 04:27:05;;;;;;;8.10;5.35;;;;;;;12.16;75.39;99862.19;5417627;26;20327;-48
2024/04/13 04:29:31;;;;;;;11.50;6.00;;;;;;;12.15;75.08;99864.00;5417502;26;20076;-48
2024/04/13 04:31:57;;;;;;;9.48;7.00;;;;;;;12.11;75.39;99860.13;5415395;26;20346;-48
2024/04/13 04:34:23;;;;;;;9.38;4.93;;;;;;;12.22;75.70;99865.91;5415632;26;20018;-48
2024/04/13 04:36:48;;;;;;;40.28;36.65;;;;;;;12.20;75.23;99866.09;5415597;26;20003;-48
2024/04/13 04:39:14;;;;;;;12.93;8.82;;;;;;;12.16;75.17;99873.53;5417296;26;20076;-48
2024/04/13 04:41:40;;;;;;;9.07;7.30;;;;;;;12.03;75.63;99868.06;5416734;26;19999;-48
2024/04/13 04:44:06;;;;;;;7.57;5.25;;;;;;;12.05;75.84;99862.63;5417215;26;20076;-48
2024/04/13 04:46:31;;;;;;;12.73;6.07;;;;;;;12.07;75.80;99861.44;5417326;26;20040;-47
2024/04/13 04:48:57;;;;;;;10.05;6.88;;;;;;;12.10;75.75;99868.19;5417053;26;20019;-47
2024/04/13 04:51:23;;;;;;;16.85;15.20;;;;;;;12.17;75.80;99869.91;5417147;26;20015;-47
2024/04/13 04:53:49;;;;;;;10.57;6.07;;;;;;;12.16;75.31;99868.25;5415416;26;20076;-47
2024/04/13 04:56:15;;;;;;;10.38;6.30;;;;;;;12.06;75.15;99865.09;5416989;26;20018;-47
2024/04/13 04:58:41;;;;;;;9.93;7.75;;;;;;;11.96;75.54;99867.97;5416939;26;20014;-47
2024/04/13 05:01:07;;;;;;;20.00;17.95;;;;;;;11.82;76.07;99874.00;5415409;26;20003;-47
2024/04/13 05:03:33;;;;;;;10.13;7.28;;;;;;;11.74;76.44;99874.91;5417058;26;20004;-47
2024/04/13 05:05:59;;;;;;;12.68;9.48;;;;;;;11.79;76.88;99872.56;5415275;26;20000;-48
2024/04/13 05:08:25;;;;;;;10.38;7.72;;;;;;;11.83;77.09;99870.41;5416983;26;20073;-48
2024/04/13 05:10:51;;;;;;;17.95;16.27;;;;;;;11.92;77.09;99879.84;5414910;26;20361;-47
2024/04/13 05:13:17;;;;;;;11.23;7.05;;;;;;;11.98;76.96;99888.84;5416830;26;20000;-48
2024/04/13 05:15:43;;;;;;;12.90;10.73;;;;;;;12.17;77.74;99892.75;5416835;26;20081;-47
2024/04/13 05:18:09;;;;;;;8.68;7.30;;;;;;;12.39;76.86;99894.50;5414889;26;20011;-47
2024/04/13 05:20:36;;;;;;;13.90;12.20;;;;;;;12.45;74.68;99892.94;5416680;26;20381;-48
2024/04/13 05:23:05;;;;;;;11.27;6.43;;;;;;;12.53;74.42;99903.38;5416713;26;20000;-47
2024/04/13 05:25:31;;;;;;;9.13;5.95;;;;;;;12.86;73.53;99900.34;5414921;26;20072;-48
2024/04/13 05:27:57;;;;;;;7.57;5.18;;;;;;;13.10;72.03;99899.19;5414784;26;20004;-48
2024/04/13 05:30:23;;;;;;;12.10;5.03;;;;;;;13.31;71.56;99901.06;5416491;26;19999;-48
2024/04/13 05:32:48;;;;;;;8.40;4.75;;;;;;;13.63;70.00;99904.19;5414522;26;20331;-48
2024/04/13 05:35:18;;;;;;;7.60;4.97;;;;;;;14.03;68.19;99904.50;5416477;26;20014;-47
2024/04/13 05:37:47;;;;;;;7.95;4.57;;;;;;;14.68;65.51;99902.44;5416501;26;20010;-48
2024/04/13 05:40:13;;;;;;;41.78;38.15;;;;;;;15.24;63.79;99903.22;5414518;26;19999;-46
2024/04/13 05:42:39;;;;;;;12.85;10.63;;;;;;;16.00;61.78;99908.19;5414690;26;21072;-46
2024/04/13 05:45:05;;;;;;;10.77;7.97;;;;;;;16.71;59.26;99899.41;5416203;26;20072;-46
2024/04/13 05:47:32;;;;;;;8.13;6.32;;;;;;;16.77;56.67;99905.72;5385080;26;20003;-45
2024/04/13 05:49:59;;;;;;;10.07;5.25;;;;;;;16.75;56.24;99910.44;5416073;26;20014;-46
2024/04/13 05:52:24;;;;;;;8.88;5.60;;;;;;;16.91;55.89;99899.38;5414398;26;20011;-46
2024/04/13 05:54:50;;;;;;;9.55;4.97;;;;;;;17.15;56.58;99897.00;5413164;26;20334;-46
2024/04/13 05:57:16;;;;;;;12.65;7.68;;;;;;;17.42;54.68;99897.63;5414198;26;20073;-46
2024/04/13 05:59:41;;;;;;;8.82;5.43;;;;;;;17.74;55.05;99903.69;5416033;26;20003;-46
2024/04/13 06:02:08;;;;;;;8.70;4.88;;;;;;;18.14;53.75;99911.34;5416006;26;20003;-46
2024/04/13 06:04:35;;;;;;;5.65;4.50;;;;;;;18.38;53.18;99911.50;5416056;26;20012;-46
2024/04/13 06:07:01;;;;;;;31.98;28.88;;;;;;;18.35;52.07;99906.63;5384618;26;20003;-46
2024/04/13 06:09:26;;;;;;;32.13;28.95;;;;;;;18.00;52.37;99914.34;5414107;26;20404;-46
2024/04/13 06:11:52;;;;;;;46.10;41.63;;;;;;;18.11;52.69;99911.78;5415799;26;20015;-46
2024/04/13 06:14:18;;;;;;;14.05;12.65;;;;;;;18.61;51.79;99918.81;5414373;26;20000;-46
2024/04/13 06:16:44;;;;;;;25.52;20.75;;;;;;;19.27;50.02;99919.81;5416064;26;20036;-46
2024/04/13 06:19:13;;;;;;;15.57;8.63;;;;;;;19.99;47.89;99918.94;5413938;26;20015;-46
2024/04/13 06:21:39;;;;;;;24.63;22.40;;;;;;;20.59;46.53;99917.06;5414046;26;20000;-46
2024/04/13 06:24:05;;;;;;;12.35;11.15;;;;;;;20.93;44.43;99912.66;5414207;26;20438;-46
2024/04/13 06:26:31;;;;;;;21.65;19.70;;;;;;;21.20;43.54;99912.06;5415463;26;19999;-46
2024/04/13 06:28:57;;;;;;;8.38;5.45;;;;;;;21.48;43.08;99906.69;5413658;26;20367;-46
2024/04/13 06:31:23;;;;;;;11.95;4.60;;;;;;;21.73;42.34;99900.13;5420684;26;20011;-46
2024/04/13 06:33:48;;;;;;;6.63;3.80;;;;;;;22.00;41.46;99900.28;5413641;26;20466;-47
2024/04/13 06:36:15;;;;;;;7.22;4.57;;;;;;;22.14;41.48;99892.72;5413561;26;20007;-46
2024/04/13 06:38:41;;;;;;;7.05;4.43;;;;;;;22.37;40.81;99890.91;5415726;26;20077;-46
2024/04/13 06:41:07;;;;;;;9.57;3.78;;;;;;;22.61;40.74;99889.59;5384003;26;20000;-46
2024/04/13 06:43:33;;;;;;;14.15;12.38;;;;;;;22.88;39.77;99894.97;5413605;26;20347;-46
2024/04/13 06:45:58;;;;;;;10.52;5.88;;;;;;;22.55;39.77;99890.59;5413543;26;20073;-46
2024/04/13 06:48:24;;;;;;;5.25;4.75;;;;;;;22.03;41.03;99893.63;5415376;26;20007;-47
2024/04/13 06:50:50;;;;;;;10.05;7.05;;;;;;;22.23;41.21;99893.91;5413214;26;20003;-46
2024/04/13 06:53:16;;;;;;;7.22;3.50;;;;;;;22.69;40.44;99889.13;5413376;26;20460;-46
2024/04/13 06:55:42;;;;;;;10.18;5.63;;;;;;;23.48;39.12;99897.69;5413257;26;19999;-46
2024/04/13 06:58:08;;;;;;;6.78;4.18;;;;;;;24.06;38.28;99890.59;5383840;26;20420;-47
2024/04/13 07:00:34;;;;;;;9.05;4.18;;;;;;;24.61;36.88;99888.50;5413241;26;20003;-46
2024/04/13 07:03:00;;;;;;;8.15;3.58;;;;;;;25.17;35.60;99890.47;5415012;26;20108;-47
2024/04/13 07:05:25;;;;;;;9.00;5.95;;;;;;;25.68;34.78;99884.31;5416491;26;20105;-47
2024/04/13 07:07:51;;;;;;;28.30;22.45;;;;;;;26.46;33.82;99889.25;5418743;26;20035;-47
2024/04/13 07:10:17;;;;;;;79.05;71.07;;;;;;;27.61;32.06;99880.16;5418487;26;20000;-47
2024/04/13 07:12:42;;;;;;;19.45;15.48;;;;;;;28.09;31.25;99881.03;5416772;26;20129;-47
2024/04/13 07:15:08;;;;;;;10.98;8.25;;;;;;;28.38;31.44;99880.16;5418581;26;20027;-47
2024/04/13 07:17:33;;;;;;;39.38;27.38;;;;;;;29.28;29.54;99872.16;5418472;26;19999;-47
2024/04/13 07:19:59;;;;;;;16.27;13.90;;;;;;;30.30;28.65;99869.50;5418428;26;20011;-45
2024/04/13 07:22:25;;;;;;;12.88;4.88;;;;;;;31.07;27.25;99859.69;5416796;26;20012;-44
2024/04/13 07:24:50;;;;;;;10.00;6.45;;;;;;;30.79;26.38;99850.84;5418497;26;20000;-44
2024/04/13 07:27:16;;;;;;;7.15;4.38;;;;;;;29.75;27.92;99851.34;5416871;26;20000;-44
2024/04/13 07:29:42;;;;;;;7.35;3.47;;;;;;;29.17;28.19;99859.91;5418186;26;20010;-44
2024/04/13 07:32:07;;;;;;;7.07;4.05;;;;;;;29.64;28.32;99848.00;5418111;26;20461;-44
2024/04/13 07:34:36;;;;;;;8.43;3.47;;;;;;;30.35;27.90;99844.22;5418570;26;20073;-44
2024/04/13 07:37:01;;;;;;;6.60;2.90;;;;;;;30.91;26.44;99847.59;5418143;26;20522;-44
2024/04/13 07:39:27;;;;;;;8.30;3.10;;;;;;;31.15;26.32;99847.28;5418328;26;19999;-45
2024/04/13 07:41:52;;;;;;;6.65;3.20;;;;;;;32.00;26.40;99845.34;5418071;26;20011;-44
2024/04/13 07:44:18;;;;;;;6.43;3.90;;;;;;;33.27;24.38;99851.84;5418110;26;20077;-45
2024/04/13 07:46:44;;;;;;;9.23;4.10;;;;;;;34.51;23.94;99835.41;5417992;26;19999;-45
2024/04/13 07:49:10;;;;;;;6.57;4.07;;;;;;;35.69;21.86;99844.25;5418013;26;20076;-45
2024/04/13 07:51:36;;;;;;;8.30;3.00;;;;;;;36.19;21.12;99835.69;5418071;26;20323;-45
2024/04/13 07:54:02;;;;;;;7.45;3.05;;;;;;;36.10;20.96;99836.94;5416170;26;20406;-44
2024/04/13 07:56:27;;;;;;;8.35;3.10;;;;;;;34.87;21.85;99834.00;5416353;26;20030;-45
2024/04/13 07:58:53;;;;;;;8.20;3.38;;;;;;;34.33;22.51;99834.72;5417902;26;20015;-44
2024/04/13 08:01:19;;;;;;;10.02;3.63;;;;;;;34.46;22.94;99830.16;5416123;26;20015;-45
2024/04/13 08:03:44;;;;;;;6.30;3.42;;;;;;;34.23;23.16;99825.03;5417854;26;20008;-45
2024/04/13 08:06:10;;;;;;;8.68;3.35;;;;;;;34.16;22.67;99830.22;5417829;26;20010;-45
2024/04/13 08:08:36;;;;;;;14.68;4.13;;;;;;;33.86;22.79;99832.91;5416110;26;20000;-45
2024/04/13 08:11:02;;;;;;;13.05;5.60;;;;;;;33.69;23.13;99827.56;5417548;26;20011;-45
2024/04/13 08:13:28;;;;;;;11.45;4.20;;;;;;;33.89;23.37;99824.09;5417828;26;20004;-45
2024/04/13 08:15:54;;;;;;;10.05;3.97;;;;;;;34.49;22.20;99822.13;5417442;26;20018;-45
2024/04/13 08:18:20;;;;;;;4.55;3.15;;;;;;;34.66;21.74;99821.19;5416917;26;20040;-45
2024/04/13 08:20:46;;;;;;;5.72;3.47;;;;;;;34.95;22.28;99819.47;5417459;26;20000;-45
2024/04/13 08:23:12;;;;;;;8.10;4.47;;;;;;;35.89;21.36;99818.75;5417483;26;20488;-45
2024/04/13 08:25:37;;;;;;;6.57;3.75;;;;;;;36.18;20.91;99815.00;5417565;26;20003;-45
2024/04/13 08:28:03;;;;;;;6.25;4.05;;;;;;;36.61;20.73;99806.44;5415755;26;20014;-45
2024/04/13 08:30:29;;;;;;;5.75;4.00;;;;;;;36.89;20.35;99809.97;5415656;26;20049;-45
2024/04/13 08:32:55;;;;;;;5.50;3.40;;;;;;;36.97;20.01;99808.22;5417435;26;20323;-47
2024/04/13 08:35:21;;;;;;;8.35;4.10;;;;;;;36.51;20.35;99807.72;5417324;26;20014;-47
2024/04/13 08:37:47;;;;;;;8.43;3.95;;;;;;;35.92;21.00;99809.88;5417398;26;20007;-47
2024/04/13 08:40:13;;;;;;;5.22;3.75;;;;;;;35.41;21.43;99803.91;5415531;26;19999;-47
2024/04/13 08:42:40;;;;;;;7.22;3.65;;;;;;;34.72;22.33;99800.78;5415488;26;20438;-45
2024/04/13 08:45:12;;;;;;;9.63;3.97;;;;;;;34.49;22.21;99802.22;5417433;26;20011;-44
2024/04/13 08:47:38;;;;;;;9.32;4.05;;;;;;;34.32;22.82;99800.44;5417240;26;20519;-44
2024/04/13 08:50:06;;;;;;;11.43;3.88;;;;;;;34.62;22.00;99795.69;5417167;26;20000;-45
2024/04/13 08:52:32;;;;;;;9.52;3.90;;;;;;;34.90;22.36;99795.94;5417154;26;19999;-44
2024/04/13 08:54:58;;;;;;;12.02;6.53;;;;;;;34.99;21.97;99802.13;5385914;26;20003;-45
2024/04/13 08:57:26;;;;;;;7.15;4.43;;;;;;;34.22;22.02;99802.44;5385880;26;19999;-45
2024/04/13 08:59:59;;;;;;;8.10;4.45;;;;;;;33.80;22.93;99802.34;5417021;26;20162;-45
2024/04/13 09:02:30;;;;;;;7.90;5.30;;;;;;;34.02;22.88;99795.78;5415527;26;20043;-45
2024/04/13 09:04:56;;;;;;;5.97;3.45;;;;;;;34.54;21.73;99791.91;5386988;26;20022;-44
2024/04/13 09:07:22;;;;;;;5.18;3.78;;;;;;;34.93;21.56;99798.03;5416950;26;20008;-44
2024/04/13 09:09:48;;;;;;;8.95;3.97;;;;;;;35.19;22.11;99792.31;5415215;26;20076;-44
2024/04/13 09:12:15;;;;;;;9.77;4.70;;;;;;;35.97;20.69;99798.69;5417066;26;20003;-44
2024/04/13 09:14:41;;;;;;;9.20;3.75;;;;;;;36.50;20.57;99797.91;5415232;26;20010;-45
2024/04/13 09:17:07;;;;;;;10.02;4.43;;;;;;;36.80;20.32;99792.91;5416803;26;20506;-44
2024/04/13 09:19:33;;;;;;;9.13;3.78;;;;;;;37.38;19.70;99789.72;5416863;26;20031;-47
2024/04/13 09:21:59;;;;;;;8.73;3.30;;;;;;;38.00;18.92;99790.00;5416728;26;20334;-47
2024/04/13 09:24:25;;;;;;;5.22;2.95;;;;;;;38.20;18.99;99795.53;5416820;26;20007;-47
2024/04/13 09:26:51;;;;;;;11.68;8.20;;;;;;;38.41;18.58;99795.19;5414877;26;20006;-47
2024/04/13 09:29:27;;;;;;;9.00;3.78;;;;;;;38.52;18.67;99796.22;5383705;26;20404;-47
2024/04/13 09:31:53;;;;;;;4.80;3.60;;;;;;;38.19;18.45;99789.25;5416196;26;20341;-47
2024/04/13 09:34:20;;;;;;;7.30;3.53;;;;;;;38.17;18.39;99791.56;5414786;26;20023;-47
2024/04/13 09:36:47;;;;;;;6.05;3.60;;;;;;;38.63;17.93;99785.44;5416393;26;20068;-47
2024/04/13 09:39:20;;;;;;;8.43;3.33;;;;;;;39.06;17.90;99792.56;5414992;26;20011;-48
2024/04/13 09:41:46;;;;;;;6.28;3.15;;;;;;;38.85;17.95;99783.91;5416362;26;20454;-47
2024/04/13 09:44:11;;;;;;;4.85;3.38;;;;;;;39.42;17.74;99787.69;5416463;26;20003;-48
2024/04/13 09:46:37;;;;;;;8.55;4.28;;;;;;;39.78;17.08;99785.44;5414512;26;20030;-49
2024/04/13 09:49:04;;;;;;;8.98;2.83;;;;;;;39.51;17.03;99779.19;5384867;26;20050;-48
2024/04/13 09:51:29;;;;;;;7.60;2.80;;;;;;;39.42;17.52;99781.38;5416333;26;20453;-48
2024/04/13 09:53:55;;;;;;;6.07;2.80;;;;;;;39.89;16.87;99775.44;5416295;26;20003;-48
2024/04/13 09:56:21;;;;;;;8.27;3.22;;;;;;;40.39;16.83;99777.25;5416170;26;20007;-48
2024/04/13 09:58:50;;;;;;;5.93;3.10;;;;;;;40.56;16.96;99773.91;5414319;26;20015;-48
2024/04/13 10:01:16;;;;;;;5.43;2.20;;;;;;;40.53;16.47;99767.19;5416075;26;20040;-48
2024/04/13 10:03:41;;;;;;;8.75;4.30;;;;;;;39.59;16.60;99772.63;5355728;26;20007;-47
2024/04/13 10:06:14;;;;;;;5.85;3.65;;;;;;;39.32;17.38;99774.50;5415959;26;20000;-48
2024/04/13 10:08:43;;;;;;;6.50;2.92;;;;;;;38.97;17.31;99767.28;5416033;26;20014;-48
2024/04/13 10:11:10;;;;;;;8.07;3.17;;;;;;;39.00;17.63;99765.75;5415921;26;20000;-47
2024/04/13 10:13:42;;;;;;;9.65;2.90;;;;;;;39.82;17.17;99764.28;5414038;26;20000;-48
2024/04/13 10:16:12;;;;;;;7.22;2.60;;;;;;;40.42;16.91;99760.78;5416065;26;20076;-49
2024/04/13 10:18:38;;;;;;;6.43;2.47;;;;;;;41.37;16.41;99760.50;5414150;26;20080;-48
2024/04/13 10:21:05;;;;;;;4.57;2.30;;;;;;;41.86;15.83;99762.03;5415748;26;20011;-48
2024/04/13 10:23:41;;;;;;;7.45;2.75;;;;;;;42.01;15.63;99758.13;5415545;26;20011;-49
2024/04/13 10:26:07;;;;;;;7.22;2.00;;;;;;;41.49;15.74;99755.50;5413878;26;20035;-48
2024/04/13 10:28:33;;;;;;;11.90;2.95;;;;;;;41.28;16.26;99758.09;5415598;26;20015;-47
2024/04/13 10:30:59;;;;;;;4.05;2.33;;;;;;;41.17;16.05;99748.91;5415238;26;20003;-48
2024/04/13 10:33:29;;;;;;;7.88;2.67;;;;;;;40.11;16.66;99759.22;5415621;26;20004;-48
2024/04/13 10:36:02;;;;;;;7.85;3.10;;;;;;;38.96;18.28;99752.75;5415467;26;20000;-48
2024/04/13 10:38:36;;;;;;;5.00;2.47;;;;;;;38.82;17.98;99746.19;5413713;26;20014;-48
2024/04/13 10:41:03;;;;;;;7.35;2.80;;;;;;;39.32;17.48;99747.03;5417849;26;20335;-48
2024/04/13 10:43:30;;;;;;;5.57;2.47;;;;;;;39.21;17.73;99737.88;5419047;26;20442;-48
2024/04/13 10:45:57;;;;;;;4.00;2.35;;;;;;;38.22;18.92;99736.44;5419014;26;20052;-48
2024/04/13 10:48:26;;;;;;;7.32;2.50;;;;;;;38.25;19.28;99734.91;5418944;26;20010;-48
2024/04/13 10:50:55;;;;;;;4.22;2.10;;;;;;;38.33;19.25;99737.44;5416890;26;20346;-48
2024/04/13 10:53:23;;;;;;;6.90;2.42;;;;;;;38.91;18.95;99741.25;5418967;26;20015;-48
2024/04/13 10:55:50;;;;;;;6.40;2.42;;;;;;;39.35;18.14;99735.34;5418760;26;20042;-48
2024/04/13 10:58:16;;;;;;;5.55;3.17;;;;;;;39.82;18.11;99730.53;5417034;26;20456;-48
2024/04/13 11:00:46;;;;;;;4.13;2.17;;;;;;;39.96;17.69;99729.94;5416815;26;20000;-48
2024/04/13 11:03:12;;;;;;;5.03;2.17;;;;;;;40.00;18.18;99722.53;5418700;26;20462;-48
2024/04/13 11:05:44;;;;;;;4.90;2.60;;;;;;;39.91;17.61;99722.84;5418534;26;20011;-48
2024/04/13 11:08:10;;;;;;;4.68;1.95;;;;;;;39.86;18.05;99712.13;5418618;26;20003;-48
2024/04/13 11:10:37;;;;;;;5.10;2.28;;;;;;;39.96;17.95;99714.25;5416735;26;20011;-49
2024/04/13 11:13:02;;;;;;;5.38;2.35;;;;;;;39.56;18.18;99715.66;5418620;26;20003;-48
2024/04/13 11:15:30;;;;;;;5.65;2.08;;;;;;;39.26;18.22;99705.41;5416708;26;20015;-48
2024/04/13 11:17:55;;;;;;;6.45;2.40;;;;;;;39.01;18.90;99707.72;5418514;26;20018;-48
2024/04/13 11:20:24;;;;;;;5.55;2.05;;;;;;;39.58;17.95;99707.03;5418458;26;20003;-48
2024/04/13 11:22:51;;;;;;;7.60;2.20;;;;;;;39.70;17.86;99704.88;5418415;26;20330;-48
2024/04/13 11:25:17;;;;;;;6.20;2.17;;;;;;;39.94;18.41;99698.13;5416587;26;20072;-48
2024/04/13 11:27:44;;;;;;;6.10;2.40;;;;;;;40.32;17.79;99696.22;5418318;26;20011;-48